sensor_id;sensor_type;location;lat;lon;timestamp;P1;durP1;ratioP1;P2;durP2;ratioP2
71108;SDS011;59614;51.012;-1.648;2023-01-29T00:02:17;23.45;;;13.77;;
71108;SDS011;59614;51.012;-1.648;2023-01-29T00:04:42;23.20;;;14.45;;
71108;SDS011;59614;51.012;-1.648;2023-01-29T00:07:08;24.13;;;14.00;;
71108;SDS011;59614;51.012;-1.648;2023-01-29T00:09:34;21.95;;;14.35;;
71108;SDS011;59614;51.012;-1.648;2023-01-29T00:11:59;20.48;;;13.43;;
71108;SDS011;59614;51.012;-1.648;2023-01-29T00:14:25;22.35;;;13.25;;
71108;SDS011;59614;51.012;-1.648;2023-01-29T00:19:18;20.27;;;12.60;;
71108;SDS011;59614;51.012;-1.648;2023-01-29T00:21:44;20.88;;;12.77;;
71108;SDS011;59614;51.012;-1.648;2023-01-29T00:24:10;26.48;;;13.10;;
71108;SDS011;59614;51.012;-1.648;2023-01-29T00:26:36;17.92;;;12.10;;
71108;SDS011;59614;51.012;-1.648;2023-01-29T00:29:03;22.63;;;13.13;;
71108;SDS011;59614;51.012;-1.648;2023-01-29T00:31:29;21.13;;;12.57;;
71108;SDS011;59614;51.012;-1.648;2023-01-29T00:33:55;19.23;;;12.00;;
71108;SDS011;59614;51.012;-1.648;2023-01-29T00:36:21;21.23;;;13.23;;
71108;SDS011;59614;51.012;-1.648;2023-01-29T00:38:46;21.88;;;12.65;;
71108;SDS011;59614;51.012;-1.648;2023-01-29T00:41:18;20.30;;;12.60;;
71108;SDS011;59614;51.012;-1.648;2023-01-29T00:44:04;23.50;;;14.68;;
71108;SDS011;59614;51.012;-1.648;2023-01-29T00:46:49;24.13;;;14.85;;
71108;SDS011;59614;51.012;-1.648;2023-01-29T00:49:15;23.38;;;13.52;;
71108;SDS011;59614;51.012;-1.648;2023-01-29T00:51:40;24.10;;;14.77;;
71108;SDS011;59614;51.012;-1.648;2023-01-29T00:54:06;23.25;;;14.18;;
71108;SDS011;59614;51.012;-1.648;2023-01-29T00:56:32;20.35;;;13.52;;
71108;SDS011;59614;51.012;-1.648;2023-01-29T00:59:01;21.35;;;13.57;;
71108;SDS011;59614;51.012;-1.648;2023-01-29T01:01:27;22.85;;;13.98;;
71108;SDS011;59614;51.012;-1.648;2023-01-29T01:04:11;25.77;;;14.25;;
71108;SDS011;59614;51.012;-1.648;2023-01-29T01:06:37;25.55;;;13.88;;
71108;SDS011;59614;51.012;-1.648;2023-01-29T01:09:07;23.95;;;13.73;;
71108;SDS011;59614;51.012;-1.648;2023-01-29T01:11:52;23.02;;;13.20;;
71108;SDS011;59614;51.012;-1.648;2023-01-29T01:14:17;20.48;;;13.55;;
71108;SDS011;59614;51.012;-1.648;2023-01-29T01:16:44;23.65;;;13.88;;
71108;SDS011;59614;51.012;-1.648;2023-01-29T01:19:10;25.02;;;14.63;;
71108;SDS011;59614;51.012;-1.648;2023-01-29T01:21:36;25.50;;;14.60;;
71108;SDS011;59614;51.012;-1.648;2023-01-29T01:24:02;24.95;;;14.80;;
71108;SDS011;59614;51.012;-1.648;2023-01-29T01:26:29;26.77;;;14.55;;
71108;SDS011;59614;51.012;-1.648;2023-01-29T01:28:56;26.35;;;15.15;;
71108;SDS011;59614;51.012;-1.648;2023-01-29T01:31:22;25.40;;;15.15;;
71108;SDS011;59614;51.012;-1.648;2023-01-29T01:33:47;27.05;;;15.18;;
71108;SDS011;59614;51.012;-1.648;2023-01-29T01:36:12;25.48;;;14.82;;
71108;SDS011;59614;51.012;-1.648;2023-01-29T01:38:39;26.35;;;15.25;;
71108;SDS011;59614;51.012;-1.648;2023-01-29T01:41:12;24.42;;;15.20;;
71108;SDS011;59614;51.012;-1.648;2023-01-29T01:46:16;21.48;;;13.63;;
71108;SDS011;59614;51.012;-1.648;2023-01-29T01:48:42;19.70;;;12.48;;
71108;SDS011;59614;51.012;-1.648;2023-01-29T01:51:10;24.77;;;15.25;;
71108;SDS011;59614;51.012;-1.648;2023-01-29T01:53:56;23.95;;;14.73;;
71108;SDS011;59614;51.012;-1.648;2023-01-29T01:56:40;26.50;;;15.13;;
71108;SDS011;59614;51.012;-1.648;2023-01-29T01:59:09;23.10;;;14.40;;
71108;SDS011;59614;51.012;-1.648;2023-01-29T02:01:40;24.20;;;14.82;;
71108;SDS011;59614;51.012;-1.648;2023-01-29T02:04:11;26.88;;;14.80;;
71108;SDS011;59614;51.012;-1.648;2023-01-29T02:06:59;24.23;;;14.07;;
71108;SDS011;59614;51.012;-1.648;2023-01-29T02:12:16;26.60;;;13.55;;
71108;SDS011;59614;51.012;-1.648;2023-01-29T02:14:42;22.73;;;14.52;;
71108;SDS011;59614;51.012;-1.648;2023-01-29T02:17:09;24.25;;;13.88;;
71108;SDS011;59614;51.012;-1.648;2023-01-29T02:29:54;23.23;;;12.80;;
71108;SDS011;59614;51.012;-1.648;2023-01-29T02:32:52;22.92;;;13.75;;
71108;SDS011;59614;51.012;-1.648;2023-01-29T02:35:40;24.75;;;14.10;;
71108;SDS011;59614;51.012;-1.648;2023-01-29T02:38:20;25.00;;;13.85;;
71108;SDS011;59614;51.012;-1.648;2023-01-29T02:41:02;20.63;;;12.85;;
71108;SDS011;59614;51.012;-1.648;2023-01-29T02:46:09;22.95;;;14.70;;
71108;SDS011;59614;51.012;-1.648;2023-01-29T02:48:47;24.30;;;14.52;;
71108;SDS011;59614;51.012;-1.648;2023-01-29T02:51:23;22.60;;;13.75;;
71108;SDS011;59614;51.012;-1.648;2023-01-29T02:56:25;19.85;;;12.68;;
71108;SDS011;59614;51.012;-1.648;2023-01-29T02:58:59;26.60;;;14.95;;
71108;SDS011;59614;51.012;-1.648;2023-01-29T03:01:30;27.40;;;14.70;;
71108;SDS011;59614;51.012;-1.648;2023-01-29T03:04:42;26.55;;;14.57;;
71108;SDS011;59614;51.012;-1.648;2023-01-29T03:07:07;26.13;;;14.45;;
71108;SDS011;59614;51.012;-1.648;2023-01-29T03:09:57;21.88;;;13.63;;
71108;SDS011;59614;51.012;-1.648;2023-01-29T03:12:25;27.70;;;14.52;;
71108;SDS011;59614;51.012;-1.648;2023-01-29T03:15:01;23.75;;;15.07;;
71108;SDS011;59614;51.012;-1.648;2023-01-29T03:22:38;23.33;;;12.60;;
71108;SDS011;59614;51.012;-1.648;2023-01-29T03:25:08;20.23;;;12.38;;
71108;SDS011;59614;51.012;-1.648;2023-01-29T03:27:59;24.17;;;13.85;;
71108;SDS011;59614;51.012;-1.648;2023-01-29T03:30:53;22.10;;;13.75;;
71108;SDS011;59614;51.012;-1.648;2023-01-29T03:33:42;23.30;;;12.45;;
71108;SDS011;59614;51.012;-1.648;2023-01-29T03:36:16;20.67;;;12.75;;
71108;SDS011;59614;51.012;-1.648;2023-01-29T03:38:46;22.02;;;13.43;;
71108;SDS011;59614;51.012;-1.648;2023-01-29T03:41:23;23.13;;;13.20;;
71108;SDS011;59614;51.012;-1.648;2023-01-29T03:46:56;20.10;;;12.63;;
71108;SDS011;59614;51.012;-1.648;2023-01-29T03:49:29;26.02;;;13.63;;
71108;SDS011;59614;51.012;-1.648;2023-01-29T03:52:07;25.65;;;13.63;;
71108;SDS011;59614;51.012;-1.648;2023-01-29T03:57:43;21.80;;;12.80;;
71108;SDS011;59614;51.012;-1.648;2023-01-29T04:02:51;26.02;;;13.18;;
71108;SDS011;59614;51.012;-1.648;2023-01-29T04:05:48;21.98;;;11.95;;
71108;SDS011;59614;51.012;-1.648;2023-01-29T04:08:22;21.38;;;12.82;;
71108;SDS011;59614;51.012;-1.648;2023-01-29T04:10:53;20.83;;;12.13;;
71108;SDS011;59614;51.012;-1.648;2023-01-29T04:13:23;21.25;;;13.20;;
71108;SDS011;59614;51.012;-1.648;2023-01-29T04:15:49;22.58;;;13.88;;
71108;SDS011;59614;51.012;-1.648;2023-01-29T04:18:20;22.35;;;12.30;;
71108;SDS011;59614;51.012;-1.648;2023-01-29T04:20:45;22.00;;;12.27;;
71108;SDS011;59614;51.012;-1.648;2023-01-29T04:23:21;21.52;;;12.85;;
71108;SDS011;59614;51.012;-1.648;2023-01-29T04:32:08;20.33;;;12.70;;
71108;SDS011;59614;51.012;-1.648;2023-01-29T04:45:09;21.25;;;12.75;;
71108;SDS011;59614;51.012;-1.648;2023-01-29T04:50:28;20.55;;;11.93;;
71108;SDS011;59614;51.012;-1.648;2023-01-29T05:01:01;19.92;;;11.43;;
71108;SDS011;59614;51.012;-1.648;2023-01-29T05:03:31;16.90;;;10.38;;
71108;SDS011;59614;51.012;-1.648;2023-01-29T05:05:58;17.40;;;10.75;;
71108;SDS011;59614;51.012;-1.648;2023-01-29T05:08:25;17.60;;;10.43;;
71108;SDS011;59614;51.012;-1.648;2023-01-29T05:10:54;16.60;;;10.02;;
71108;SDS011;59614;51.012;-1.648;2023-01-29T05:13:22;15.85;;;9.43;;
71108;SDS011;59614;51.012;-1.648;2023-01-29T05:15:55;14.90;;;9.55;;
71108;SDS011;59614;51.012;-1.648;2023-01-29T05:18:27;14.85;;;9.60;;
71108;SDS011;59614;51.012;-1.648;2023-01-29T05:20:54;17.20;;;10.67;;
71108;SDS011;59614;51.012;-1.648;2023-01-29T05:23:21;20.83;;;10.75;;
71108;SDS011;59614;51.012;-1.648;2023-01-29T05:25:47;21.13;;;10.65;;
71108;SDS011;59614;51.012;-1.648;2023-01-29T05:28:14;18.70;;;10.43;;
71108;SDS011;59614;51.012;-1.648;2023-01-29T05:33:13;19.33;;;10.43;;
71108;SDS011;59614;51.012;-1.648;2023-01-29T05:35:40;18.13;;;9.57;;
71108;SDS011;59614;51.012;-1.648;2023-01-29T05:38:05;18.40;;;9.93;;
71108;SDS011;59614;51.012;-1.648;2023-01-29T05:40:31;21.52;;;10.85;;
71108;SDS011;59614;51.012;-1.648;2023-01-29T05:42:57;17.45;;;11.00;;
71108;SDS011;59614;51.012;-1.648;2023-01-29T05:45:23;15.40;;;10.13;;
71108;SDS011;59614;51.012;-1.648;2023-01-29T05:47:48;16.17;;;10.23;;
71108;SDS011;59614;51.012;-1.648;2023-01-29T05:50:14;15.45;;;10.07;;
71108;SDS011;59614;51.012;-1.648;2023-01-29T05:52:39;20.83;;;10.90;;
71108;SDS011;59614;51.012;-1.648;2023-01-29T05:55:06;17.65;;;10.27;;
71108;SDS011;59614;51.012;-1.648;2023-01-29T05:57:32;16.08;;;9.27;;
71108;SDS011;59614;51.012;-1.648;2023-01-29T05:59:57;15.10;;;8.98;;
71108;SDS011;59614;51.012;-1.648;2023-01-29T06:02:23;15.57;;;9.95;;
71108;SDS011;59614;51.012;-1.648;2023-01-29T06:04:50;15.07;;;8.98;;
71108;SDS011;59614;51.012;-1.648;2023-01-29T06:07:17;16.05;;;9.73;;
71108;SDS011;59614;51.012;-1.648;2023-01-29T06:09:42;16.52;;;8.93;;
71108;SDS011;59614;51.012;-1.648;2023-01-29T06:12:08;14.35;;;8.57;;
71108;SDS011;59614;51.012;-1.648;2023-01-29T06:14:34;13.43;;;8.23;;
71108;SDS011;59614;51.012;-1.648;2023-01-29T06:16:59;14.75;;;8.88;;
71108;SDS011;59614;51.012;-1.648;2023-01-29T06:19:24;14.15;;;9.45;;
71108;SDS011;59614;51.012;-1.648;2023-01-29T06:21:50;13.95;;;9.05;;
71108;SDS011;59614;51.012;-1.648;2023-01-29T06:24:15;14.85;;;9.25;;
71108;SDS011;59614;51.012;-1.648;2023-01-29T06:26:41;13.20;;;7.95;;
71108;SDS011;59614;51.012;-1.648;2023-01-29T06:29:06;16.38;;;9.98;;
71108;SDS011;59614;51.012;-1.648;2023-01-29T06:31:31;16.77;;;9.30;;
71108;SDS011;59614;51.012;-1.648;2023-01-29T06:33:57;13.88;;;8.52;;
71108;SDS011;59614;51.012;-1.648;2023-01-29T06:36:22;17.50;;;8.70;;
71108;SDS011;59614;51.012;-1.648;2023-01-29T06:38:48;14.60;;;8.48;;
71108;SDS011;59614;51.012;-1.648;2023-01-29T06:41:15;15.10;;;8.55;;
71108;SDS011;59614;51.012;-1.648;2023-01-29T06:43:45;19.35;;;9.38;;
71108;SDS011;59614;51.012;-1.648;2023-01-29T06:46:12;15.77;;;9.43;;
71108;SDS011;59614;51.012;-1.648;2023-01-29T06:48:38;17.02;;;9.48;;
71108;SDS011;59614;51.012;-1.648;2023-01-29T06:51:04;17.30;;;9.65;;
71108;SDS011;59614;51.012;-1.648;2023-01-29T06:53:32;18.60;;;9.63;;
71108;SDS011;59614;51.012;-1.648;2023-01-29T06:55:58;19.65;;;9.02;;
71108;SDS011;59614;51.012;-1.648;2023-01-29T06:58:24;17.50;;;9.43;;
71108;SDS011;59614;51.012;-1.648;2023-01-29T07:00:50;17.27;;;9.23;;
71108;SDS011;59614;51.012;-1.648;2023-01-29T07:03:16;16.60;;;9.40;;
71108;SDS011;59614;51.012;-1.648;2023-01-29T07:05:41;17.55;;;8.48;;
71108;SDS011;59614;51.012;-1.648;2023-01-29T07:08:07;16.73;;;9.25;;
71108;SDS011;59614;51.012;-1.648;2023-01-29T07:10:33;15.00;;;8.85;;
71108;SDS011;59614;51.012;-1.648;2023-01-29T07:12:59;17.38;;;9.45;;
71108;SDS011;59614;51.012;-1.648;2023-01-29T07:15:25;16.27;;;8.85;;
71108;SDS011;59614;51.012;-1.648;2023-01-29T07:18:09;17.33;;;9.05;;
71108;SDS011;59614;51.012;-1.648;2023-01-29T07:20:38;16.60;;;8.90;;
71108;SDS011;59614;51.012;-1.648;2023-01-29T07:23:04;16.35;;;8.70;;
71108;SDS011;59614;51.012;-1.648;2023-01-29T07:25:30;12.50;;;7.82;;
71108;SDS011;59614;51.012;-1.648;2023-01-29T07:28:00;14.80;;;8.50;;
71108;SDS011;59614;51.012;-1.648;2023-01-29T07:30:26;15.55;;;8.57;;
71108;SDS011;59614;51.012;-1.648;2023-01-29T07:32:52;20.58;;;9.15;;
71108;SDS011;59614;51.012;-1.648;2023-01-29T07:35:17;13.38;;;7.60;;
71108;SDS011;59614;51.012;-1.648;2023-01-29T07:37:43;18.23;;;9.18;;
71108;SDS011;59614;51.012;-1.648;2023-01-29T07:40:08;13.93;;;8.18;;
71108;SDS011;59614;51.012;-1.648;2023-01-29T07:42:38;16.60;;;8.80;;
71108;SDS011;59614;51.012;-1.648;2023-01-29T07:45:04;18.75;;;8.35;;
71108;SDS011;59614;51.012;-1.648;2023-01-29T07:47:30;15.82;;;9.00;;
71108;SDS011;59614;51.012;-1.648;2023-01-29T07:49:56;19.85;;;10.43;;
71108;SDS011;59614;51.012;-1.648;2023-01-29T07:52:21;19.08;;;11.50;;
71108;SDS011;59614;51.012;-1.648;2023-01-29T07:54:47;21.27;;;11.15;;
71108;SDS011;59614;51.012;-1.648;2023-01-29T07:57:12;22.50;;;11.10;;
71108;SDS011;59614;51.012;-1.648;2023-01-29T07:59:37;23.65;;;11.05;;
71108;SDS011;59614;51.012;-1.648;2023-01-29T08:02:03;21.52;;;10.07;;
71108;SDS011;59614;51.012;-1.648;2023-01-29T08:04:28;26.23;;;11.38;;
71108;SDS011;59614;51.012;-1.648;2023-01-29T08:06:54;22.98;;;11.13;;
71108;SDS011;59614;51.012;-1.648;2023-01-29T08:09:19;23.20;;;10.60;;
71108;SDS011;59614;51.012;-1.648;2023-01-29T08:11:44;20.80;;;11.02;;
71108;SDS011;59614;51.012;-1.648;2023-01-29T08:14:10;15.90;;;9.82;;
71108;SDS011;59614;51.012;-1.648;2023-01-29T08:16:35;25.17;;;10.40;;
71108;SDS011;59614;51.012;-1.648;2023-01-29T08:19:02;22.50;;;10.88;;
71108;SDS011;59614;51.012;-1.648;2023-01-29T08:21:28;30.27;;;12.55;;
71108;SDS011;59614;51.012;-1.648;2023-01-29T08:23:53;25.33;;;11.25;;
71108;SDS011;59614;51.012;-1.648;2023-01-29T08:26:18;20.90;;;9.75;;
71108;SDS011;59614;51.012;-1.648;2023-01-29T08:28:44;19.60;;;9.23;;
71108;SDS011;59614;51.012;-1.648;2023-01-29T08:31:16;19.98;;;9.75;;
71108;SDS011;59614;51.012;-1.648;2023-01-29T08:33:44;17.20;;;9.43;;
71108;SDS011;59614;51.012;-1.648;2023-01-29T08:36:10;19.20;;;9.85;;
71108;SDS011;59614;51.012;-1.648;2023-01-29T08:38:35;20.77;;;9.48;;
71108;SDS011;59614;51.012;-1.648;2023-01-29T08:41:01;18.55;;;9.18;;
71108;SDS011;59614;51.012;-1.648;2023-01-29T08:43:26;16.80;;;9.23;;
71108;SDS011;59614;51.012;-1.648;2023-01-29T08:45:52;17.77;;;9.93;;
71108;SDS011;59614;51.012;-1.648;2023-01-29T08:48:17;20.63;;;9.63;;
71108;SDS011;59614;51.012;-1.648;2023-01-29T08:50:43;16.23;;;8.30;;
71108;SDS011;59614;51.012;-1.648;2023-01-29T08:53:08;16.83;;;8.45;;
71108;SDS011;59614;51.012;-1.648;2023-01-29T08:55:37;18.23;;;9.32;;
71108;SDS011;59614;51.012;-1.648;2023-01-29T08:58:05;17.65;;;9.05;;
71108;SDS011;59614;51.012;-1.648;2023-01-29T09:00:34;17.48;;;8.25;;
71108;SDS011;59614;51.012;-1.648;2023-01-29T09:03:00;17.88;;;9.13;;
71108;SDS011;59614;51.012;-1.648;2023-01-29T09:05:26;14.48;;;8.68;;
71108;SDS011;59614;51.012;-1.648;2023-01-29T09:07:52;17.73;;;9.32;;
71108;SDS011;59614;51.012;-1.648;2023-01-29T09:10:18;13.15;;;7.90;;
71108;SDS011;59614;51.012;-1.648;2023-01-29T09:12:43;16.23;;;9.15;;
71108;SDS011;59614;51.012;-1.648;2023-01-29T09:15:09;17.15;;;8.98;;
71108;SDS011;59614;51.012;-1.648;2023-01-29T09:17:35;16.10;;;8.98;;
71108;SDS011;59614;51.012;-1.648;2023-01-29T09:20:00;15.68;;;8.00;;
71108;SDS011;59614;51.012;-1.648;2023-01-29T09:22:26;16.73;;;8.13;;
71108;SDS011;59614;51.012;-1.648;2023-01-29T09:24:51;14.52;;;8.15;;
71108;SDS011;59614;51.012;-1.648;2023-01-29T09:27:16;18.88;;;8.07;;
71108;SDS011;59614;51.012;-1.648;2023-01-29T09:29:42;14.85;;;7.80;;
71108;SDS011;59614;51.012;-1.648;2023-01-29T09:32:07;17.10;;;8.25;;
71108;SDS011;59614;51.012;-1.648;2023-01-29T09:34:33;13.95;;;7.70;;
71108;SDS011;59614;51.012;-1.648;2023-01-29T09:36:59;14.27;;;7.97;;
71108;SDS011;59614;51.012;-1.648;2023-01-29T09:39:24;17.20;;;7.93;;
71108;SDS011;59614;51.012;-1.648;2023-01-29T09:47:34;18.08;;;8.43;;
71108;SDS011;59614;51.012;-1.648;2023-01-29T09:52:32;14.60;;;6.75;;
71108;SDS011;59614;51.012;-1.648;2023-01-29T09:55:06;13.85;;;8.02;;
71108;SDS011;59614;51.012;-1.648;2023-01-29T10:00:13;12.55;;;6.78;;
71108;SDS011;59614;51.012;-1.648;2023-01-29T10:02:50;13.55;;;7.22;;
71108;SDS011;59614;51.012;-1.648;2023-01-29T10:05:38;15.75;;;7.07;;
71108;SDS011;59614;51.012;-1.648;2023-01-29T10:08:43;13.50;;;7.00;;
71108;SDS011;59614;51.012;-1.648;2023-01-29T10:11:13;12.60;;;6.97;;
71108;SDS011;59614;51.012;-1.648;2023-01-29T10:13:48;12.10;;;6.72;;
71108;SDS011;59614;51.012;-1.648;2023-01-29T10:17:00;10.77;;;6.72;;
71108;SDS011;59614;51.012;-1.648;2023-01-29T10:19:34;12.25;;;6.75;;
71108;SDS011;59614;51.012;-1.648;2023-01-29T10:24:52;14.40;;;7.43;;
71108;SDS011;59614;51.012;-1.648;2023-01-29T10:27:21;11.95;;;7.05;;
71108;SDS011;59614;51.012;-1.648;2023-01-29T10:29:51;11.40;;;6.55;;
71108;SDS011;59614;51.012;-1.648;2023-01-29T10:32:20;17.00;;;6.97;;
71108;SDS011;59614;51.012;-1.648;2023-01-29T10:34:56;12.23;;;5.95;;
71108;SDS011;59614;51.012;-1.648;2023-01-29T10:37:29;10.98;;;6.68;;
71108;SDS011;59614;51.012;-1.648;2023-01-29T10:40:17;11.40;;;6.18;;
71108;SDS011;59614;51.012;-1.648;2023-01-29T10:43:07;11.57;;;6.43;;
71108;SDS011;59614;51.012;-1.648;2023-01-29T10:45:44;13.48;;;6.30;;
71108;SDS011;59614;51.012;-1.648;2023-01-29T10:48:29;11.63;;;6.15;;
71108;SDS011;59614;51.012;-1.648;2023-01-29T10:51:18;10.10;;;5.65;;
71108;SDS011;59614;51.012;-1.648;2023-01-29T10:53:57;12.90;;;5.82;;
71108;SDS011;59614;51.012;-1.648;2023-01-29T11:02:18;12.75;;;5.05;;
71108;SDS011;59614;51.012;-1.648;2023-01-29T11:04:46;8.30;;;4.82;;
71108;SDS011;59614;51.012;-1.648;2023-01-29T11:07:11;8.52;;;4.40;;
71108;SDS011;59614;51.012;-1.648;2023-01-29T11:09:45;8.57;;;4.25;;
71108;SDS011;59614;51.012;-1.648;2023-01-29T11:14:45;9.85;;;4.10;;
71108;SDS011;59614;51.012;-1.648;2023-01-29T11:17:16;8.30;;;4.07;;
71108;SDS011;59614;51.012;-1.648;2023-01-29T11:19:45;7.57;;;3.92;;
71108;SDS011;59614;51.012;-1.648;2023-01-29T11:22:13;5.47;;;3.63;;
71108;SDS011;59614;51.012;-1.648;2023-01-29T11:24:41;6.05;;;3.70;;
71108;SDS011;59614;51.012;-1.648;2023-01-29T11:27:22;7.57;;;3.47;;
71108;SDS011;59614;51.012;-1.648;2023-01-29T11:29:51;6.82;;;3.65;;
71108;SDS011;59614;51.012;-1.648;2023-01-29T11:34:59;3.50;;;2.17;;
71108;SDS011;59614;51.012;-1.648;2023-01-29T11:37:34;5.53;;;3.13;;
71108;SDS011;59614;51.012;-1.648;2023-01-29T11:42:48;5.10;;;2.50;;
71108;SDS011;59614;51.012;-1.648;2023-01-29T11:47:47;4.32;;;2.55;;
71108;SDS011;59614;51.012;-1.648;2023-01-29T11:50:19;5.57;;;2.80;;
71108;SDS011;59614;51.012;-1.648;2023-01-29T11:52:57;2.92;;;2.10;;
71108;SDS011;59614;51.012;-1.648;2023-01-29T11:55:27;4.32;;;2.38;;
71108;SDS011;59614;51.012;-1.648;2023-01-29T11:57:59;5.40;;;3.03;;
71108;SDS011;59614;51.012;-1.648;2023-01-29T12:00:32;2.78;;;1.65;;
71108;SDS011;59614;51.012;-1.648;2023-01-29T12:05:54;3.30;;;1.90;;
71108;SDS011;59614;51.012;-1.648;2023-01-29T12:10:48;4.13;;;2.00;;
71108;SDS011;59614;51.012;-1.648;2023-01-29T12:15:44;7.97;;;2.90;;
71108;SDS011;59614;51.012;-1.648;2023-01-29T12:21:00;4.78;;;1.70;;
71108;SDS011;59614;51.012;-1.648;2023-01-29T12:23:40;2.70;;;1.60;;
71108;SDS011;59614;51.012;-1.648;2023-01-29T12:38:02;2.92;;;1.90;;
71108;SDS011;59614;51.012;-1.648;2023-01-29T12:40:39;4.03;;;2.03;;
71108;SDS011;59614;51.012;-1.648;2023-01-29T12:43:20;3.88;;;2.10;;
71108;SDS011;59614;51.012;-1.648;2023-01-29T12:46:27;3.28;;;2.20;;
71108;SDS011;59614;51.012;-1.648;2023-01-29T12:48:56;3.58;;;2.10;;
71108;SDS011;59614;51.012;-1.648;2023-01-29T12:51:28;4.32;;;2.50;;
71108;SDS011;59614;51.012;-1.648;2023-01-29T12:54:01;5.80;;;2.53;;
71108;SDS011;59614;51.012;-1.648;2023-01-29T12:56:33;4.78;;;2.67;;
71108;SDS011;59614;51.012;-1.648;2023-01-29T12:59:24;8.15;;;4.15;;
71108;SDS011;59614;51.012;-1.648;2023-01-29T13:01:54;5.03;;;2.80;;
71108;SDS011;59614;51.012;-1.648;2023-01-29T13:04:39;8.38;;;3.50;;
71108;SDS011;59614;51.012;-1.648;2023-01-29T13:07:17;6.25;;;4.18;;
71108;SDS011;59614;51.012;-1.648;2023-01-29T13:09:49;9.15;;;5.78;;
71108;SDS011;59614;51.012;-1.648;2023-01-29T13:12:19;4.10;;;2.30;;
71108;SDS011;59614;51.012;-1.648;2023-01-29T13:14:48;5.82;;;3.22;;
71108;SDS011;59614;51.012;-1.648;2023-01-29T13:17:31;3.63;;;2.20;;
71108;SDS011;59614;51.012;-1.648;2023-01-29T13:20:09;5.85;;;2.78;;
71108;SDS011;59614;51.012;-1.648;2023-01-29T13:22:42;7.72;;;2.50;;
71108;SDS011;59614;51.012;-1.648;2023-01-29T13:25:13;5.70;;;2.15;;
71108;SDS011;59614;51.012;-1.648;2023-01-29T13:27:41;6.28;;;3.20;;
71108;SDS011;59614;51.012;-1.648;2023-01-29T13:30:22;4.55;;;2.30;;
71108;SDS011;59614;51.012;-1.648;2023-01-29T13:32:52;4.18;;;2.22;;
71108;SDS011;59614;51.012;-1.648;2023-01-29T13:35:20;4.07;;;2.30;;
71108;SDS011;59614;51.012;-1.648;2023-01-29T13:37:48;3.75;;;2.10;;
71108;SDS011;59614;51.012;-1.648;2023-01-29T13:40:26;3.15;;;2.00;;
71108;SDS011;59614;51.012;-1.648;2023-01-29T13:42:54;4.30;;;2.60;;
71108;SDS011;59614;51.012;-1.648;2023-01-29T13:45:22;7.10;;;3.05;;
71108;SDS011;59614;51.012;-1.648;2023-01-29T13:47:50;5.63;;;2.78;;
71108;SDS011;59614;51.012;-1.648;2023-01-29T13:50:23;4.10;;;2.50;;
71108;SDS011;59614;51.012;-1.648;2023-01-29T13:55:31;6.65;;;3.53;;
71108;SDS011;59614;51.012;-1.648;2023-01-29T13:58:01;13.35;;;3.80;;
71108;SDS011;59614;51.012;-1.648;2023-01-29T14:10:24;4.15;;;2.17;;
71108;SDS011;59614;51.012;-1.648;2023-01-29T14:12:52;4.43;;;2.75;;
71108;SDS011;59614;51.012;-1.648;2023-01-29T14:15:37;4.72;;;3.30;;
71108;SDS011;59614;51.012;-1.648;2023-01-29T14:23:26;4.30;;;1.92;;
71108;SDS011;59614;51.012;-1.648;2023-01-29T14:25:52;6.85;;;4.10;;
71108;SDS011;59614;51.012;-1.648;2023-01-29T14:28:23;7.40;;;4.00;;
71108;SDS011;59614;51.012;-1.648;2023-01-29T14:30:50;5.85;;;3.22;;
71108;SDS011;59614;51.012;-1.648;2023-01-29T14:33:26;5.63;;;3.38;;
71108;SDS011;59614;51.012;-1.648;2023-01-29T14:36:02;7.72;;;4.57;;
71108;SDS011;59614;51.012;-1.648;2023-01-29T14:38:31;6.07;;;3.30;;
71108;SDS011;59614;51.012;-1.648;2023-01-29T14:43:32;7.35;;;3.60;;
71108;SDS011;59614;51.012;-1.648;2023-01-29T14:46:40;12.52;;;6.88;;
71108;SDS011;59614;51.012;-1.648;2023-01-29T14:48:58;12.55;;;6.35;;
71108;SDS011;59614;51.012;-1.648;2023-01-29T14:51:24;9.68;;;6.53;;
71108;SDS011;59614;51.012;-1.648;2023-01-29T14:56:32;12.15;;;7.40;;
71108;SDS011;59614;51.012;-1.648;2023-01-29T15:01:34;13.50;;;8.65;;
71108;SDS011;59614;51.012;-1.648;2023-01-29T15:04:03;9.32;;;7.18;;
71108;SDS011;59614;51.012;-1.648;2023-01-29T15:06:33;11.02;;;7.30;;
71108;SDS011;59614;51.012;-1.648;2023-01-29T15:09:10;13.32;;;6.22;;
71108;SDS011;59614;51.012;-1.648;2023-01-29T15:14:37;11.35;;;7.57;;
71108;SDS011;59614;51.012;-1.648;2023-01-29T15:19:40;12.48;;;6.70;;
71108;SDS011;59614;51.012;-1.648;2023-01-29T15:22:16;13.63;;;6.10;;
71108;SDS011;59614;51.012;-1.648;2023-01-29T15:24:43;13.65;;;7.93;;
71108;SDS011;59614;51.012;-1.648;2023-01-29T15:27:12;13.85;;;8.50;;
71108;SDS011;59614;51.012;-1.648;2023-01-29T15:29:40;12.40;;;6.80;;
71108;SDS011;59614;51.012;-1.648;2023-01-29T15:32:09;13.70;;;7.68;;
71108;SDS011;59614;51.012;-1.648;2023-01-29T15:34:51;10.40;;;6.20;;
71108;SDS011;59614;51.012;-1.648;2023-01-29T15:37:28;9.38;;;3.42;;
71108;SDS011;59614;51.012;-1.648;2023-01-29T15:39:55;12.05;;;7.82;;
71108;SDS011;59614;51.012;-1.648;2023-01-29T15:42:21;5.75;;;3.60;;
71108;SDS011;59614;51.012;-1.648;2023-01-29T15:44:50;5.70;;;3.40;;
71108;SDS011;59614;51.012;-1.648;2023-01-29T15:47:18;5.60;;;3.40;;
71108;SDS011;59614;51.012;-1.648;2023-01-29T15:49:47;4.80;;;2.70;;
71108;SDS011;59614;51.012;-1.648;2023-01-29T15:52:24;7.32;;;3.10;;
71108;SDS011;59614;51.012;-1.648;2023-01-29T15:54:53;6.05;;;3.35;;
71108;SDS011;59614;51.012;-1.648;2023-01-29T15:57:22;8.23;;;3.80;;
71108;SDS011;59614;51.012;-1.648;2023-01-29T15:59:50;7.43;;;3.83;;
71108;SDS011;59614;51.012;-1.648;2023-01-29T16:04:59;7.05;;;3.70;;
71108;SDS011;59614;51.012;-1.648;2023-01-29T16:07:24;7.50;;;3.83;;
71108;SDS011;59614;51.012;-1.648;2023-01-29T16:09:50;7.72;;;4.40;;
71108;SDS011;59614;51.012;-1.648;2023-01-29T16:12:17;7.75;;;4.32;;
71108;SDS011;59614;51.012;-1.648;2023-01-29T16:14:43;12.43;;;5.35;;
71108;SDS011;59614;51.012;-1.648;2023-01-29T16:17:20;6.63;;;3.10;;
71108;SDS011;59614;51.012;-1.648;2023-01-29T16:19:54;8.13;;;3.30;;
71108;SDS011;59614;51.012;-1.648;2023-01-29T16:22:24;9.25;;;3.40;;
71108;SDS011;59614;51.012;-1.648;2023-01-29T16:24:53;5.65;;;3.22;;
71108;SDS011;59614;51.012;-1.648;2023-01-29T16:27:19;5.55;;;2.80;;
71108;SDS011;59614;51.012;-1.648;2023-01-29T16:29:45;4.63;;;2.50;;
71108;SDS011;59614;51.012;-1.648;2023-01-29T16:32:11;3.00;;;2.00;;
71108;SDS011;59614;51.012;-1.648;2023-01-29T16:34:41;6.32;;;2.38;;
71108;SDS011;59614;51.012;-1.648;2023-01-29T16:40:12;4.65;;;2.28;;
71108;SDS011;59614;51.012;-1.648;2023-01-29T16:42:40;27.45;;;10.23;;
71108;SDS011;59614;51.012;-1.648;2023-01-29T16:45:25;29.40;;;10.50;;
71108;SDS011;59614;51.012;-1.648;2023-01-29T16:48:35;16.23;;;8.30;;
71108;SDS011;59614;51.012;-1.648;2023-01-29T16:51:03;7.07;;;4.65;;
71108;SDS011;59614;51.012;-1.648;2023-01-29T16:53:54;7.57;;;4.70;;
71108;SDS011;59614;51.012;-1.648;2023-01-29T16:56:24;15.80;;;10.55;;
71108;SDS011;59614;51.012;-1.648;2023-01-29T16:58:53;10.35;;;5.93;;
71108;SDS011;59614;51.012;-1.648;2023-01-29T17:01:20;6.07;;;3.47;;
71108;SDS011;59614;51.012;-1.648;2023-01-29T17:03:51;9.32;;;4.10;;
71108;SDS011;59614;51.012;-1.648;2023-01-29T17:06:23;6.25;;;3.10;;
71108;SDS011;59614;51.012;-1.648;2023-01-29T17:08:50;6.55;;;3.40;;
71108;SDS011;59614;51.012;-1.648;2023-01-29T17:11:24;6.82;;;3.08;;
71108;SDS011;59614;51.012;-1.648;2023-01-29T17:14:02;10.15;;;4.07;;
71108;SDS011;59614;51.012;-1.648;2023-01-29T17:16:31;10.70;;;5.88;;
71108;SDS011;59614;51.012;-1.648;2023-01-29T17:19:03;7.95;;;3.92;;